createdAt,value
2022-10-25T00:01:20.549Z,1.40
2022-10-25T00:03:50.644Z,0.97
2022-10-25T00:06:18.375Z,1.00
2022-10-25T00:08:46.170Z,0.80
2022-10-25T00:11:21.874Z,0.80
2022-10-25T00:13:50.964Z,0.70
2022-10-25T00:16:20.671Z,1.00
2022-10-25T00:18:48.587Z,1.03
2022-10-25T00:21:16.386Z,1.03
2022-10-25T00:23:44.174Z,0.90
2022-10-25T00:26:12.866Z,0.97
2022-10-25T00:28:42.558Z,1.20
2022-10-25T00:31:13.328Z,0.90
2022-10-25T00:33:42.548Z,1.23
2022-10-25T00:36:12.432Z,1.10
2022-10-25T00:38:40.714Z,1.00
2022-10-25T00:41:09.358Z,1.07
2022-10-25T00:43:39.176Z,0.97
2022-10-25T00:46:14.810Z,0.97
2022-10-25T00:48:49.008Z,1.07
2022-10-25T00:51:16.823Z,1.10
2022-10-25T00:53:44.658Z,0.87
2022-10-25T00:56:17.255Z,1.23
2022-10-25T00:58:47.564Z,0.80
2022-10-25T01:01:16.841Z,0.90
2022-10-25T01:03:46.797Z,0.90
2022-10-25T01:06:19.862Z,0.87
2022-10-25T01:08:51.026Z,1.27
2022-10-25T01:11:19.636Z,0.80
2022-10-25T01:13:49.281Z,1.30
2022-10-25T01:16:28.726Z,1.07
2022-10-25T01:19:09.042Z,1.00
2022-10-25T01:21:48.579Z,1.00
2022-10-25T01:24:58.622Z,0.80
2022-10-25T01:27:48.513Z,0.80
2022-10-25T01:30:21.131Z,0.90
2022-10-25T01:32:59.491Z,1.00
2022-10-25T01:35:30.838Z,1.07
2022-10-25T01:38:18.791Z,1.10
2022-10-25T01:40:53.593Z,1.10
2022-10-25T01:43:31.807Z,1.30
2022-10-25T01:46:08.631Z,1.10
2022-10-25T01:48:42.538Z,1.30
2022-10-25T01:51:12.212Z,1.13
2022-10-25T01:53:47.064Z,1.30
2022-10-25T01:56:21.022Z,1.13
2022-10-25T01:59:01.358Z,1.40
2022-10-25T02:01:40.183Z,1.03
2022-10-25T02:04:18.455Z,1.30
2022-10-25T02:06:55.279Z,1.37
2022-10-25T02:09:32.761Z,1.30
2022-10-25T02:12:01.694Z,1.30
2022-10-25T02:14:35.451Z,1.30
2022-10-25T02:17:08.213Z,1.37
2022-10-25T02:19:40.974Z,1.43
2022-10-25T02:22:10.403Z,1.53
2022-10-25T02:24:40.488Z,1.40
2022-10-25T02:27:11.759Z,1.20
2022-10-25T02:29:40.844Z,1.30
2022-10-25T02:32:08.789Z,1.23
2022-10-25T02:34:37.855Z,1.30
2022-10-25T02:37:05.581Z,1.27
2022-10-25T02:39:34.476Z,1.07
2022-10-25T02:46:06.842Z,1.33
2022-10-25T02:48:34.662Z,1.43
2022-10-25T02:51:03.763Z,1.20
2022-10-25T02:53:33.859Z,1.10
2022-10-25T02:56:02.591Z,1.20
2022-10-25T02:58:31.971Z,1.43
2022-10-25T03:01:00.474Z,1.47
2022-10-25T03:03:29.391Z,1.13
2022-10-25T03:05:57.296Z,1.07
2022-10-25T03:08:29.319Z,2.03
2022-10-25T03:10:57.180Z,1.00
2022-10-25T03:13:24.943Z,1.47
2022-10-25T03:15:52.743Z,1.40
2022-10-25T03:18:20.547Z,1.80
2022-10-25T03:20:48.213Z,1.30
2022-10-25T03:23:16.308Z,1.50
2022-10-25T03:25:45.480Z,1.50
2022-10-25T03:28:13.234Z,1.27
2022-10-25T03:30:43.445Z,1.47
2022-10-25T03:33:11.303Z,1.20
2022-10-25T03:35:39.087Z,1.23
2022-10-25T03:38:06.821Z,1.53
2022-10-25T03:40:36.878Z,1.20
2022-10-25T03:43:05.990Z,1.17
2022-10-25T03:45:33.724Z,1.30
2022-10-25T03:48:01.479Z,1.50
2022-10-25T03:50:29.182Z,1.10
2022-10-25T03:52:57.012Z,1.20
2022-10-25T03:55:24.871Z,1.70
2022-10-25T03:57:52.605Z,1.43
2022-10-25T04:00:21.821Z,1.40
2022-10-25T04:02:59.336Z,1.57
2022-10-25T04:05:29.864Z,1.67
2022-10-25T04:07:57.573Z,1.10
2022-10-25T04:10:25.694Z,1.30
2022-10-25T04:12:54.880Z,1.70
2022-10-25T04:15:24.340Z,1.60
2022-10-25T04:17:52.743Z,1.60
2022-10-25T04:20:21.323Z,1.47
2022-10-25T04:22:54.984Z,1.70
2022-10-25T04:25:23.053Z,1.50
2022-10-25T04:27:50.768Z,2.20
2022-10-25T04:30:18.757Z,1.30
2022-10-25T04:32:48.396Z,1.40
2022-10-25T04:35:16.454Z,1.93
2022-10-25T04:37:44.139Z,1.57
2022-10-25T04:40:12.746Z,1.60
2022-10-25T04:42:40.562Z,1.60
2022-10-25T04:45:09.019Z,1.83
2022-10-25T04:47:37.104Z,1.40
2022-10-25T04:50:07.673Z,1.33
2022-10-25T04:52:35.396Z,2.03
2022-10-25T04:55:03.114Z,1.70
2022-10-25T04:57:30.859Z,1.70
2022-10-25T04:59:59.128Z,1.50
2022-10-25T05:02:27.117Z,1.30
2022-10-25T05:04:54.999Z,1.43
2022-10-25T05:07:26.517Z,1.40
2022-10-25T05:09:54.306Z,1.50
2022-10-25T05:12:24.379Z,1.87
2022-10-25T05:14:52.094Z,1.50
2022-10-25T05:17:19.763Z,2.23
2022-10-25T05:19:47.502Z,1.50
2022-10-25T05:22:15.299Z,1.67
2022-10-25T05:24:44.438Z,2.00
2022-10-25T05:27:12.320Z,1.83
2022-10-25T05:29:40.174Z,1.60
2022-10-25T05:32:08.270Z,1.60
2022-10-25T05:34:36.016Z,1.47
2022-10-25T05:37:03.741Z,1.70
2022-10-25T05:39:31.454Z,1.83
2022-10-25T05:42:06.224Z,1.70
2022-10-25T05:44:33.954Z,1.67
2022-10-25T05:47:01.661Z,1.67
2022-10-25T05:49:29.400Z,1.50
2022-10-25T05:51:57.366Z,1.67
2022-10-25T05:54:25.214Z,1.90
2022-10-25T05:56:53.083Z,1.93
2022-10-25T05:59:22.141Z,1.80
2022-10-25T06:01:50.316Z,1.93
2022-10-25T06:04:18.660Z,1.60
2022-10-25T06:06:48.127Z,1.73
2022-10-25T06:09:15.817Z,2.00
2022-10-25T06:11:43.726Z,1.87
2022-10-25T06:14:12.014Z,1.80
2022-10-25T06:16:41.132Z,2.10
2022-10-25T06:19:09.176Z,2.00
2022-10-25T06:21:37.054Z,1.80
2022-10-25T06:24:05.211Z,1.73
2022-10-25T06:26:33.476Z,1.40
2022-10-25T06:29:02.686Z,1.77
2022-10-25T06:31:31.902Z,1.90
2022-10-25T06:34:01.577Z,1.93
2022-10-25T06:36:31.077Z,1.67
2022-10-25T06:39:05.123Z,1.83
2022-10-25T06:41:36.769Z,1.60
2022-10-25T06:44:06.692Z,2.00
2022-10-25T06:46:52.598Z,2.00
2022-10-25T06:49:26.008Z,1.70
2022-10-25T06:51:53.698Z,1.97
2022-10-25T06:54:21.378Z,1.77
2022-10-25T06:56:49.230Z,1.80
2022-10-25T06:59:17.110Z,1.70
2022-10-25T07:01:44.962Z,1.50
2022-10-25T07:04:12.816Z,1.50
2022-10-25T07:06:42.057Z,1.70
2022-10-25T07:09:12.359Z,1.53
2022-10-25T07:11:42.921Z,1.67
2022-10-25T07:14:11.729Z,1.60
2022-10-25T07:16:39.634Z,1.40
2022-10-25T07:19:07.464Z,1.57
2022-10-25T07:21:35.566Z,1.50
2022-10-25T07:24:05.005Z,1.87
2022-10-25T07:26:35.933Z,1.63
2022-10-25T07:29:05.412Z,1.57
2022-10-25T07:31:36.377Z,2.27
2022-10-25T07:34:06.070Z,1.50
2022-10-25T07:36:34.061Z,1.53
2022-10-25T07:39:01.725Z,1.60
2022-10-25T07:41:30.859Z,1.40
2022-10-25T07:43:58.624Z,1.30
2022-10-25T07:46:26.600Z,1.40
2022-10-25T07:48:54.334Z,1.13
2022-10-25T07:51:22.132Z,1.40
2022-10-25T07:53:53.894Z,1.53
2022-10-25T07:56:23.918Z,2.87
2022-10-25T07:58:53.509Z,3.50
2022-10-25T08:01:23.482Z,1.60
2022-10-25T08:03:51.755Z,1.43
2022-10-25T08:06:20.808Z,1.60
2022-10-25T08:08:48.541Z,1.30
2022-10-25T08:11:18.914Z,1.77
2022-10-25T08:13:49.918Z,2.27
2022-10-25T08:16:19.375Z,2.20
2022-10-25T08:18:47.131Z,2.40
2022-10-25T08:21:14.896Z,2.30
2022-10-25T08:23:42.603Z,1.63
2022-10-25T08:26:10.351Z,1.33
2022-10-25T08:28:38.135Z,1.17
2022-10-25T08:31:06.122Z,1.55
2022-10-25T08:33:36.750Z,1.30
2022-10-25T08:36:04.882Z,1.20
2022-10-25T08:38:32.599Z,1.10
2022-10-25T08:41:10.176Z,1.10
2022-10-25T08:44:11.885Z,1.25
2022-10-25T08:46:43.486Z,1.30
2022-10-25T08:49:19.850Z,1.05
2022-10-25T08:51:50.549Z,1.33
2022-10-25T08:54:27.689Z,1.13
2022-10-25T08:57:15.068Z,1.30
2022-10-25T08:59:46.488Z,1.20
2022-10-25T09:02:21.433Z,1.33
2022-10-25T09:04:50.655Z,1.23
2022-10-25T09:07:40.573Z,1.50
2022-10-25T09:10:20.176Z,1.10
2022-10-25T09:12:57.330Z,1.20
2022-10-25T09:15:40.525Z,1.48
2022-10-25T09:18:16.422Z,1.20
2022-10-25T09:20:50.605Z,1.00
2022-10-25T09:23:25.962Z,1.20
2022-10-25T09:26:01.965Z,1.48
2022-10-25T09:28:45.139Z,1.02
2022-10-25T09:31:19.191Z,1.45
2022-10-25T09:33:48.527Z,1.40
2022-10-25T09:36:18.241Z,1.08
2022-10-25T09:38:49.683Z,1.45
2022-10-25T09:41:22.586Z,1.10
2022-10-25T09:43:59.114Z,0.95
2022-10-25T09:46:37.393Z,1.55
2022-10-25T09:49:17.657Z,0.95
2022-10-25T09:51:57.459Z,1.20
2022-10-25T09:54:30.483Z,1.08
2022-10-25T09:56:58.209Z,1.00
2022-10-25T09:59:27.785Z,1.30
2022-10-25T10:01:55.652Z,1.25
2022-10-25T10:04:26.788Z,1.38
2022-10-25T10:07:03.664Z,1.77
2022-10-25T10:09:33.256Z,1.23
2022-10-25T10:12:05.414Z,1.30
2022-10-25T10:14:37.808Z,1.30
2022-10-25T10:17:11.987Z,1.17
2022-10-25T10:19:40.438Z,0.90
2022-10-25T10:22:15.179Z,0.95
2022-10-25T10:24:44.689Z,1.00
2022-10-25T10:27:24.862Z,1.20
2022-10-25T10:29:57.335Z,1.02
2022-10-25T10:32:27.826Z,1.17
2022-10-25T10:34:57.508Z,1.17
2022-10-25T10:37:28.170Z,1.00
2022-10-25T10:39:57.883Z,1.30
2022-10-25T10:47:29.955Z,0.98
2022-10-25T10:49:57.705Z,0.80
2022-10-25T10:52:31.440Z,1.15
2022-10-25T10:55:01.052Z,0.90
2022-10-25T10:57:32.808Z,1.10
2022-10-25T11:00:02.385Z,0.95
2022-10-25T11:02:38.941Z,0.90
2022-10-25T11:05:20.628Z,1.20
2022-10-25T11:07:57.265Z,0.95
2022-10-25T11:10:36.589Z,0.80
2022-10-25T11:13:16.567Z,0.98
2022-10-25T11:16:10.744Z,1.38
2022-10-25T11:18:49.415Z,1.10
2022-10-25T11:22:00.640Z,0.80
2022-10-25T11:24:38.413Z,1.10
2022-10-25T11:27:18.786Z,1.20
2022-10-25T11:30:06.354Z,0.85
2022-10-25T11:33:09.068Z,1.83
2022-10-25T11:35:46.262Z,1.15
2022-10-25T11:38:20.698Z,1.00
2022-10-25T11:41:01.556Z,1.30
2022-10-25T11:43:47.451Z,1.40
2022-10-25T11:46:28.800Z,1.60
2022-10-25T11:49:12.446Z,1.42
2022-10-25T11:51:49.297Z,1.33
2022-10-25T11:54:29.625Z,2.08
2022-10-25T11:57:11.428Z,1.50
2022-10-25T11:59:50.786Z,1.40
2022-10-25T12:02:36.494Z,1.58
2022-10-25T12:05:18.530Z,1.23
2022-10-25T12:07:51.063Z,1.20
2022-10-25T12:10:26.754Z,1.20
2022-10-25T12:12:59.865Z,1.60
2022-10-25T12:15:36.424Z,1.38
2022-10-25T12:18:06.315Z,1.13
2022-10-25T12:20:36.175Z,1.25
2022-10-25T12:23:13.373Z,1.15
2022-10-25T12:25:45.208Z,1.50
2022-10-25T12:28:23.001Z,1.13
2022-10-25T12:30:57.319Z,1.10
2022-10-25T12:33:34.802Z,0.88
2022-10-25T12:36:07.105Z,1.10
2022-10-25T12:38:37.401Z,0.90
2022-10-25T12:41:09.770Z,1.05
2022-10-25T12:43:46.903Z,1.40
2022-10-25T12:46:49.099Z,1.00
2022-10-25T12:49:37.200Z,1.15
2022-10-25T12:52:21.163Z,1.05
2022-10-25T12:55:33.309Z,1.23
2022-10-25T12:58:24.556Z,1.10
2022-10-25T13:01:08.302Z,1.30
2022-10-25T13:03:52.179Z,1.10
2022-10-25T13:06:30.694Z,0.98
2022-10-25T13:09:05.467Z,0.57
2022-10-25T13:11:37.696Z,0.95
2022-10-25T13:14:06.031Z,1.00
2022-10-25T13:16:36.145Z,1.23
2022-10-25T13:19:30.591Z,1.08
2022-10-25T13:22:34.272Z,1.55
2022-10-25T13:25:16.775Z,1.27
2022-10-25T13:28:14.257Z,1.35
2022-10-25T13:30:44.140Z,1.15
2022-10-25T13:33:29.378Z,1.67
2022-10-25T13:36:01.856Z,1.58
2022-10-25T13:38:36.570Z,1.33
2022-10-25T13:41:18.981Z,1.58
2022-10-25T13:44:00.341Z,1.50
2022-10-25T13:46:33.569Z,1.58
2022-10-25T13:49:05.254Z,1.63
2022-10-25T13:51:33.810Z,1.52
2022-10-25T13:54:07.170Z,1.15
2022-10-25T13:56:50.967Z,1.17
2022-10-25T13:59:37.441Z,1.60
2022-10-25T14:02:18.185Z,1.10
2022-10-25T14:04:46.839Z,1.10
2022-10-25T14:07:53.986Z,1.88
2022-10-25T14:10:30.489Z,1.30
2022-10-25T14:13:12.192Z,1.40
2022-10-25T14:15:47.944Z,1.23
2022-10-25T14:18:21.504Z,1.50
2022-10-25T14:20:53.715Z,1.10
2022-10-25T14:23:23.995Z,1.10
2022-10-25T14:25:56.474Z,1.10
2022-10-25T14:28:28.529Z,1.70
2022-10-25T14:30:57.990Z,1.75
2022-10-25T14:33:32.163Z,1.23
2022-10-25T14:36:10.801Z,4.05
2022-10-25T14:38:52.169Z,3.33
2022-10-25T14:41:26.285Z,3.47
2022-10-25T14:43:54.352Z,2.47
2022-10-25T14:46:23.917Z,2.00
2022-10-25T14:48:58.455Z,1.50
2022-10-25T14:51:29.568Z,1.50
2022-10-25T14:54:01.306Z,1.00
2022-10-25T14:56:33.311Z,1.13
2022-10-25T14:59:02.618Z,1.30
2022-10-25T15:01:30.718Z,1.50
2022-10-25T15:04:01.672Z,1.23
2022-10-25T15:06:32.384Z,1.20
2022-10-25T15:09:41.244Z,1.50
2022-10-25T15:12:19.054Z,1.65
2022-10-25T15:14:48.283Z,1.38
2022-10-25T15:17:25.703Z,1.52
2022-10-25T15:20:08.035Z,1.25
2022-10-25T15:22:43.923Z,1.42
2022-10-25T15:25:20.031Z,1.30
2022-10-25T15:27:48.073Z,1.83
2022-10-25T15:30:34.379Z,1.60
2022-10-25T15:33:02.594Z,1.33
2022-10-25T15:35:33.438Z,1.60
2022-10-25T15:38:01.170Z,1.30
2022-10-25T15:40:28.979Z,1.80
2022-10-25T15:42:56.748Z,1.60
2022-10-25T15:45:24.445Z,1.63
2022-10-25T15:47:55.453Z,1.90
2022-10-25T15:50:23.634Z,1.67
2022-10-25T15:52:53.081Z,1.52
2022-10-25T15:55:23.570Z,2.75
2022-10-25T15:57:52.198Z,2.50
2022-10-25T16:00:25.723Z,2.40
2022-10-25T16:02:56.705Z,2.97
2022-10-25T16:05:27.104Z,1.92
2022-10-25T16:07:58.697Z,1.70
2022-10-25T16:10:27.951Z,2.20
2022-10-25T16:12:59.868Z,1.50
2022-10-25T16:15:28.018Z,2.05
2022-10-25T16:17:55.740Z,1.50
2022-10-25T16:20:27.101Z,1.90
2022-10-25T16:22:55.587Z,1.52
2022-10-25T16:25:30.464Z,3.65
2022-10-25T16:28:01.638Z,2.58
2022-10-25T16:30:36.564Z,2.70
2022-10-25T16:33:06.061Z,2.10
2022-10-25T16:35:33.863Z,2.35
2022-10-25T16:38:01.970Z,2.25
2022-10-25T16:40:31.714Z,1.88
2022-10-25T16:43:00.489Z,2.58
2022-10-25T16:45:30.783Z,2.67
2022-10-25T16:47:58.723Z,3.10
2022-10-25T16:50:28.323Z,8.00
2022-10-25T16:52:58.372Z,11.13
2022-10-25T16:55:28.744Z,18.30
2022-10-25T16:57:57.975Z,12.80
2022-10-25T17:00:26.415Z,12.07
2022-10-25T17:02:54.733Z,10.93
2022-10-25T17:05:24.907Z,8.98
2022-10-25T17:07:53.305Z,7.78
2022-10-25T17:10:23.864Z,6.03
2022-10-25T17:12:53.099Z,5.70
2022-10-25T17:15:24.297Z,4.53
2022-10-25T17:17:52.093Z,4.65
2022-10-25T17:20:20.344Z,3.92
2022-10-25T17:22:48.728Z,3.45
2022-10-25T17:25:17.308Z,2.77
2022-10-25T17:27:47.988Z,3.63
2022-10-25T17:30:17.061Z,3.20
2022-10-25T17:32:46.252Z,3.15
2022-10-25T17:35:14.042Z,3.37
2022-10-25T17:37:43.905Z,5.05
2022-10-25T17:40:13.636Z,4.27
2022-10-25T17:42:41.352Z,6.18
2022-10-25T17:45:10.148Z,5.10
2022-10-25T17:47:42.334Z,4.37
2022-10-25T17:50:12.815Z,3.77
2022-10-25T17:52:41.311Z,3.83
2022-10-25T17:55:11.167Z,5.17
2022-10-25T17:57:38.933Z,3.77
2022-10-25T18:00:07.929Z,4.23
2022-10-25T18:02:50.761Z,5.40
2022-10-25T18:05:22.040Z,4.30
2022-10-25T18:07:50.426Z,5.43
2022-10-25T18:10:18.550Z,5.47
2022-10-25T18:12:46.907Z,4.17
2022-10-25T18:15:14.915Z,4.33
2022-10-25T18:17:43.090Z,5.03
2022-10-25T18:20:11.386Z,5.47
2022-10-25T18:22:40.675Z,5.33
2022-10-25T18:25:08.975Z,5.67
2022-10-25T18:27:36.994Z,5.30
2022-10-25T18:30:05.269Z,4.77
2022-10-25T18:32:35.379Z,6.10
2022-10-25T18:35:04.484Z,5.20
2022-10-25T18:37:32.182Z,5.90
2022-10-25T18:40:01.311Z,4.50
2022-10-25T18:42:29.069Z,3.80
2022-10-25T18:44:56.790Z,4.60
2022-10-25T18:47:24.530Z,6.20
2022-10-25T18:49:52.306Z,4.73
2022-10-25T18:52:20.073Z,4.80
2022-10-25T18:54:47.778Z,4.83
2022-10-25T18:57:19.021Z,3.70
2022-10-25T18:59:47.498Z,5.90
2022-10-25T19:02:15.351Z,5.97
2022-10-25T19:04:43.211Z,5.17
2022-10-25T19:07:10.950Z,5.13
2022-10-25T19:09:38.724Z,5.17
2022-10-25T19:12:06.934Z,4.93
2022-10-25T19:14:35.983Z,4.87
2022-10-25T19:17:03.834Z,4.50
2022-10-25T19:19:31.570Z,4.67
2022-10-25T19:21:59.310Z,5.40
2022-10-25T19:24:27.158Z,4.03
2022-10-25T19:26:54.954Z,3.90
2022-10-25T19:29:22.720Z,3.73
2022-10-25T19:31:51.985Z,4.40
2022-10-25T19:34:20.563Z,4.53
2022-10-25T19:36:48.846Z,5.50
2022-10-25T19:39:16.565Z,4.80
2022-10-25T19:41:44.520Z,3.77
2022-10-25T19:44:12.199Z,3.60
2022-10-25T19:46:39.903Z,3.90
2022-10-25T19:49:11.035Z,3.73
2022-10-25T19:51:38.751Z,4.03
2022-10-25T19:54:06.560Z,4.20
2022-10-25T19:56:37.170Z,4.60
2022-10-25T19:59:05.017Z,5.32
2022-10-25T20:01:33.731Z,5.57
2022-10-25T20:04:01.648Z,5.80
2022-10-25T20:06:32.947Z,6.22
2022-10-25T20:09:01.885Z,5.90
2022-10-25T20:11:31.367Z,6.17
2022-10-25T20:14:01.774Z,6.07
2022-10-25T20:16:31.010Z,6.03
2022-10-25T20:19:01.023Z,4.70
2022-10-25T20:21:34.617Z,4.80
2022-10-25T20:24:04.388Z,5.13
2022-10-25T20:26:33.945Z,5.27
2022-10-25T20:29:04.459Z,5.30
2022-10-25T20:31:34.016Z,5.13
2022-10-25T20:34:04.143Z,3.90
2022-10-25T20:36:33.296Z,3.38
2022-10-25T20:39:01.082Z,4.90
2022-10-25T20:41:30.760Z,3.80
2022-10-25T20:44:00.704Z,3.60
2022-10-25T20:46:29.746Z,4.43
2022-10-25T20:48:58.270Z,4.88
2022-10-25T20:51:26.624Z,4.95
2022-10-25T20:53:56.807Z,5.72
2022-10-25T20:56:24.915Z,6.13
2022-10-25T20:58:52.961Z,5.18
2022-10-25T21:01:20.930Z,4.90
2022-10-25T21:03:48.819Z,5.72
2022-10-25T21:06:16.684Z,6.15
2022-10-25T21:08:46.858Z,5.70
2022-10-25T21:11:15.920Z,5.90
2022-10-25T21:13:43.602Z,5.30
2022-10-25T21:16:14.915Z,5.50
2022-10-25T21:18:43.590Z,5.13
2022-10-25T21:21:18.299Z,5.60
2022-10-25T21:23:46.232Z,5.68
2022-10-25T21:26:14.064Z,5.47
2022-10-25T21:28:43.197Z,5.97
2022-10-25T21:31:12.978Z,4.20
2022-10-25T21:33:41.710Z,3.63
2022-10-25T21:36:12.301Z,4.22
2022-10-25T21:38:40.654Z,6.13
2022-10-25T21:41:10.675Z,5.75
2022-10-25T21:43:45.052Z,4.90
2022-10-25T21:46:13.797Z,5.82
2022-10-25T21:48:41.919Z,5.15
2022-10-25T21:51:09.686Z,5.07
2022-10-25T21:53:37.425Z,4.73
2022-10-25T21:56:07.237Z,5.28
2022-10-25T21:58:35.037Z,5.57
2022-10-25T22:01:08.036Z,5.30
2022-10-25T22:03:35.913Z,4.55
2022-10-25T22:06:03.657Z,4.53
2022-10-25T22:08:31.512Z,4.10
2022-10-25T22:13:32.972Z,3.77
2022-10-25T22:16:02.387Z,4.28
2022-10-25T22:18:31.827Z,4.20
2022-10-25T22:21:00.899Z,4.32
2022-10-25T22:23:30.328Z,2.80
2022-10-25T22:26:00.779Z,4.20
2022-10-25T22:28:28.530Z,2.55
2022-10-25T22:30:59.767Z,3.40
2022-10-25T22:33:27.585Z,4.45
2022-10-25T22:35:56.705Z,3.73
2022-10-25T22:38:24.676Z,2.87
2022-10-25T22:40:59.550Z,4.13
2022-10-25T22:43:27.940Z,5.00
2022-10-25T22:45:56.089Z,4.60
2022-10-25T22:48:26.155Z,4.90
2022-10-25T22:50:56.356Z,4.50
2022-10-25T22:53:24.166Z,4.50
2022-10-25T22:55:56.508Z,4.57
2022-10-25T22:58:25.039Z,4.35
2022-10-25T23:00:53.257Z,3.00
2022-10-25T23:03:21.067Z,2.60
2022-10-25T23:05:48.802Z,2.97
2022-10-25T23:08:17.859Z,4.40
2022-10-25T23:10:45.595Z,4.55
2022-10-25T23:13:13.315Z,4.18
2022-10-25T23:15:41.169Z,4.95
2022-10-25T23:18:08.906Z,4.50
2022-10-25T23:20:36.685Z,3.47
2022-10-25T23:23:04.543Z,3.50
2022-10-25T23:25:35.458Z,3.30
2022-10-25T23:28:03.183Z,4.40
2022-10-25T23:30:33.503Z,3.70
2022-10-25T23:33:01.682Z,3.85
2022-10-25T23:35:33.526Z,4.95
2022-10-25T23:38:01.311Z,5.38
2022-10-25T23:40:31.475Z,5.13
2022-10-25T23:43:01.391Z,5.17
2022-10-25T23:45:29.158Z,4.63
2022-10-25T23:47:56.919Z,3.95
2022-10-25T23:50:25.137Z,5.40
2022-10-25T23:52:52.847Z,5.40
2022-10-25T23:55:22.657Z,5.22
2022-10-25T23:57:56.677Z,4.72
